»·PEaware :: N413C KSBA-KVNY

N413C :: KSBA-KVNY

FLIGHT INFORMATION

Flight Status: Arrived
Operator: Privately registered:
United States
More flights under this callsign
Pilot: Alec D. (17934)
Aircraft: PIPER PA-28 CHEROKEE ARCHER
(P28A)
More flights by this aircraft type
Origin: KSBA Santa Barbara Mun
United States
Destination: KVNY Van Nuys
United States
More flights between these airports :: More routes between these airports
Route: KWANG CMA CMA072 GINNA
File this flight plan on PilotEdge
Remarks:
Altitude:
(Current/Filed)
5,000ft
Speed:
(Current/Filed)
105kts
Departed: 09-Jul-18 06:21 PM
Arrived: 09-Jul-18 07:18 PM
Distance/Time
Traveled:
68nm/0:57
Distance/Time
To Go:
Arrived

Flight Plot

Page will automatically refresh every two minutes.


Map Options




Map Legend


Flown Route
Filed Route
Departure Airport
Arrival Airport
Navaid (VOR, NDB)
Fix

Horizontal Profiles

Position Reports

Time Latitude Longitude Heading Altitude Ground
Speed
09-Jul-18 17:41 34.422494 -119.835354 69 12ft 0kts
09-Jul-18 17:42 34.422494 -119.835354 69 12ft 0kts
09-Jul-18 17:43 34.422494 -119.835354 69 12ft 0kts
09-Jul-18 17:44 34.422494 -119.835354 69 12ft 0kts
09-Jul-18 17:45 34.422494 -119.835354 69 12ft 0kts
09-Jul-18 17:46 34.422494 -119.835354 69 12ft 0kts
09-Jul-18 17:47 34.422494 -119.835354 69 12ft 0kts
09-Jul-18 17:48 34.422494 -119.835354 69 12ft 0kts
09-Jul-18 17:49 34.422494 -119.835354 69 12ft 0kts
09-Jul-18 17:50 34.422494 -119.835354 69 12ft 0kts
09-Jul-18 17:51 34.422495 -119.835352 69 12ft 0kts
09-Jul-18 17:52 34.422495 -119.835349 69 12ft 0kts
09-Jul-18 17:53 34.422496 -119.835347 69 12ft 0kts
09-Jul-18 17:54 34.422497 -119.835344 69 12ft 0kts
09-Jul-18 17:55 34.422498 -119.835342 69 12ft 0kts
09-Jul-18 17:56 34.422498 -119.835339 69 12ft 0kts
09-Jul-18 17:57 34.422499 -119.835336 69 12ft 0kts
09-Jul-18 17:58 34.422500 -119.835334 69 12ft 0kts
09-Jul-18 17:59 34.422501 -119.835332 69 12ft 0kts
09-Jul-18 18:00 34.422501 -119.835329 69 12ft 0kts
09-Jul-18 18:01 34.422502 -119.835327 69 12ft 0kts
09-Jul-18 18:02 34.422503 -119.835324 69 12ft 0kts
09-Jul-18 18:03 34.422504 -119.835322 69 12ft 0kts
09-Jul-18 18:04 34.422504 -119.835319 69 12ft 0kts
09-Jul-18 18:05 34.422505 -119.835317 69 12ft 0kts
09-Jul-18 18:06 34.422506 -119.835314 69 12ft 0kts
09-Jul-18 18:07 34.422507 -119.835312 69 12ft 0kts
09-Jul-18 18:08 34.422507 -119.835309 69 12ft 0kts
09-Jul-18 18:09 34.422508 -119.835307 69 12ft 0kts
09-Jul-18 18:10 34.422509 -119.835304 69 12ft 0kts
09-Jul-18 18:11 34.422510 -119.835302 69 12ft 0kts
09-Jul-18 18:12 34.422510 -119.835299 69 12ft 0kts
09-Jul-18 18:13 34.422511 -119.835297 69 12ft 0kts
09-Jul-18 18:14 34.422512 -119.835294 69 12ft 0kts
09-Jul-18 18:15 34.422374 -119.835911 268 12ft 11kts
09-Jul-18 18:16 34.425489 -119.837782 344 12ft 19kts
09-Jul-18 18:17 34.426963 -119.835122 36 12ft 11kts
09-Jul-18 18:18 34.427184 -119.835140 329 12ft 0kts
09-Jul-18 18:19 34.427192 -119.835146 329 12ft 0kts
09-Jul-18 18:20 34.427194 -119.835148 329 12ft 0kts
09-Jul-18 18:21 34.427299 -119.835171 356 12ft 3kts
09-Jul-18 18:22 34.427512 -119.853482 266 341ft 90kts
09-Jul-18 18:23 34.425612 -119.883957 260 1069ft 88kts
09-Jul-18 18:24 34.423242 -119.913965 264 1714ft 90kts
09-Jul-18 18:25 34.421184 -119.943969 264 2284ft 89kts
09-Jul-18 18:26 34.403906 -119.948406 129 2736ft 92kts
09-Jul-18 18:27 34.388985 -119.922894 124 3164ft 92kts
09-Jul-18 18:28 34.380707 -119.893133 101 3503ft 91kts
09-Jul-18 18:29 34.376644 -119.865593 90 3862ft 88kts
09-Jul-18 18:30 34.371332 -119.833994 98 4294ft 90kts
09-Jul-18 18:31 34.366361 -119.804727 96 4691ft 89kts
09-Jul-18 18:32 34.360726 -119.775053 97 4966ft 97kts
09-Jul-18 18:33 34.354196 -119.741836 97 4999ft 106kts
09-Jul-18 18:34 34.347294 -119.706781 97 5006ft 108kts
09-Jul-18 18:35 34.340294 -119.671198 97 5015ft 108kts
09-Jul-18 18:36 34.333144 -119.635905 98 5021ft 108kts
09-Jul-18 18:37 34.326097 -119.600469 98 5019ft 108kts
09-Jul-18 18:38 34.319095 -119.565124 98 5031ft 108kts
09-Jul-18 18:39 34.312058 -119.529555 98 5021ft 108kts
09-Jul-18 18:40 34.304458 -119.494111 100 5016ft 109kts
09-Jul-18 18:41 34.296378 -119.458839 100 5032ft 108kts
09-Jul-18 18:42 34.288322 -119.423717 100 5045ft 108kts
09-Jul-18 18:43 34.280328 -119.388763 100 5037ft 110kts
09-Jul-18 18:44 34.272083 -119.352907 100 5025ft 109kts
09-Jul-18 18:45 34.264015 -119.317856 101 5037ft 108kts
09-Jul-18 18:46 34.255929 -119.282616 101 5048ft 108kts
09-Jul-18 18:47 34.248852 -119.252501 102 5105ft 118kts
09-Jul-18 18:48 34.237974 -119.206012 103 5029ft 123kts
09-Jul-18 18:49 34.230506 -119.173660 102 5034ft 118kts
09-Jul-18 18:50 34.221397 -119.134591 103 5053ft 124kts
09-Jul-18 18:51 34.212309 -119.094060 94 4947ft 125kts
09-Jul-18 18:52 34.213884 -119.054453 84 4979ft 116kts
09-Jul-18 18:53 34.215532 -119.014355 84 5060ft 122kts
09-Jul-18 18:54 34.217135 -118.972884 85 4983ft 122kts
09-Jul-18 18:55 34.226631 -118.936929 51 4929ft 108kts
09-Jul-18 18:56 34.244979 -118.908658 49 4897ft 106kts
09-Jul-18 18:57 34.262839 -118.881503 49 4998ft 101kts
09-Jul-18 18:58 34.280586 -118.854936 49 5075ft 101kts
09-Jul-18 18:59 34.298888 -118.827652 48 5062ft 104kts
09-Jul-18 19:00 34.317360 -118.800363 48 5070ft 105kts
09-Jul-18 19:01 34.336201 -118.773117 48 5070ft 105kts
09-Jul-18 19:02 34.355140 -118.745989 48 5064ft 105kts
09-Jul-18 19:03 34.374268 -118.719078 48 5073ft 105kts
09-Jul-18 19:04 34.392751 -118.691618 49 5081ft 105kts
09-Jul-18 19:05 34.411080 -118.663816 49 5091ft 105kts
09-Jul-18 19:06 34.429525 -118.636019 49 5106ft 105kts
09-Jul-18 19:07 34.447945 -118.608443 49 5124ft 105kts
09-Jul-18 19:08 34.456813 -118.575719 79 5135ft 100kts
09-Jul-18 19:09 34.460449 -118.542066 107 5161ft 107kts
09-Jul-18 19:10 34.443403 -118.512005 120 5144ft 106kts
09-Jul-18 19:11 34.416104 -118.503551 181 5121ft 106kts
09-Jul-18 19:12 34.387134 -118.504875 184 4710ft 106kts
09-Jul-18 19:13 34.356600 -118.506438 176 4188ft 108kts
09-Jul-18 19:14 34.327191 -118.502682 175 3418ft 105kts
09-Jul-18 19:15 34.298446 -118.499164 175 2679ft 100kts
09-Jul-18 19:16 34.270783 -118.496265 176 2070ft 99kts
09-Jul-18 19:17 34.243469 -118.493685 174 1468ft 97kts
09-Jul-18 19:18 34.219214 -118.491321 170 926ft 68kts
09-Jul-18 19:19 34.206416 -118.490582 261 804ft 11kts
09-Jul-18 19:20 34.205994 -118.491176 175 804ft 10kts
09-Jul-18 19:21 34.203909 -118.491657 267 804ft 0kts

Navigation Log

Ident Type
Flight plan parsing failed, navigation log unavailable